createdAt,value
2023-05-05T00:00:17.825Z,160.23
2023-05-05T00:01:17.827Z,159.06
2023-05-05T00:02:17.905Z,160.19
2023-05-05T00:03:17.919Z,159.37
2023-05-05T00:04:18.091Z,160.92
2023-05-05T00:05:17.853Z,160.69
2023-05-05T00:06:17.940Z,159.97
2023-05-05T00:07:18.047Z,158.74
2023-05-05T00:08:18.151Z,159.13
2023-05-05T00:09:18.149Z,159.62
2023-05-05T00:10:18.154Z,159.00
2023-05-05T00:11:18.169Z,158.88
2023-05-05T00:12:18.173Z,159.56
2023-05-05T00:13:18.207Z,159.62
2023-05-05T00:14:18.276Z,159.46
2023-05-05T00:15:18.284Z,158.08
2023-05-05T00:16:18.307Z,158.84
2023-05-05T00:17:18.334Z,158.79
2023-05-05T00:18:18.374Z,157.03
2023-05-05T00:19:18.314Z,158.91
2023-05-05T00:20:18.322Z,157.46
2023-05-05T00:21:18.342Z,159.17
2023-05-05T00:22:18.372Z,158.95
2023-05-05T00:23:18.361Z,158.02
2023-05-05T00:24:18.375Z,158.86
2023-05-05T00:25:18.479Z,158.83
2023-05-05T00:26:18.470Z,158.87
2023-05-05T00:27:18.482Z,159.58
2023-05-05T00:28:18.496Z,157.92
2023-05-05T00:29:18.525Z,158.98
2023-05-05T00:30:19.340Z,158.40
2023-05-05T00:31:18.557Z,159.97
2023-05-05T00:32:18.557Z,158.63
2023-05-05T00:33:18.548Z,157.44
2023-05-05T00:34:18.647Z,159.28
2023-05-05T00:35:18.581Z,157.36
2023-05-05T00:36:18.684Z,159.45
2023-05-05T00:37:18.780Z,159.82
2023-05-05T00:38:18.803Z,159.34
2023-05-05T00:39:18.819Z,157.77
2023-05-05T00:40:18.834Z,157.63
2023-05-05T00:41:19.416Z,159.09
2023-05-05T00:42:18.846Z,158.38
2023-05-05T00:43:18.860Z,157.84
2023-05-05T00:44:18.869Z,158.88
2023-05-05T00:45:18.953Z,157.52
2023-05-05T00:46:18.955Z,157.69
2023-05-05T00:47:18.981Z,158.84
2023-05-05T00:48:18.988Z,158.36
2023-05-05T00:49:19.023Z,157.90
2023-05-05T00:50:19.077Z,157.60
2023-05-05T00:51:19.045Z,157.64
2023-05-05T00:52:19.052Z,157.09
2023-05-05T00:53:19.081Z,157.10
2023-05-05T00:54:19.089Z,156.43
2023-05-05T00:55:19.107Z,157.36
2023-05-05T00:56:19.109Z,158.07
2023-05-05T00:57:19.353Z,158.55
2023-05-05T00:58:19.157Z,155.10
2023-05-05T00:59:19.860Z,157.88
2023-05-05T01:00:19.192Z,158.25
2023-05-05T01:01:19.222Z,156.87
2023-05-05T01:02:19.217Z,156.59
2023-05-05T01:03:19.400Z,157.70
2023-05-05T01:04:19.265Z,158.79
2023-05-05T01:05:19.274Z,157.54
2023-05-05T01:06:19.286Z,155.98
2023-05-05T01:07:19.427Z,158.22
2023-05-05T01:08:19.352Z,156.56
2023-05-05T01:09:19.344Z,155.98
2023-05-05T01:10:20.626Z,157.45
2023-05-05T01:11:19.373Z,156.20
2023-05-05T01:12:19.384Z,156.85
2023-05-05T01:13:19.395Z,157.16
2023-05-05T01:14:19.425Z,156.72
2023-05-05T01:15:19.433Z,155.04
2023-05-05T01:16:19.539Z,155.69
2023-05-05T01:17:19.523Z,155.27
2023-05-05T01:18:19.539Z,156.50
2023-05-05T01:19:19.567Z,155.91
2023-05-05T01:20:19.573Z,156.26
2023-05-05T01:21:19.590Z,155.45
2023-05-05T01:22:19.604Z,156.05
2023-05-05T01:23:19.621Z,156.45
2023-05-05T01:24:19.633Z,153.88
2023-05-05T01:25:20.369Z,155.01
2023-05-05T01:26:19.663Z,153.00
2023-05-05T01:27:19.738Z,154.14
2023-05-05T01:28:19.707Z,155.96
2023-05-05T01:29:19.711Z,155.06
2023-05-05T01:30:19.736Z,154.82
2023-05-05T01:31:19.775Z,155.49
2023-05-05T01:32:19.782Z,153.40
2023-05-05T01:33:19.776Z,154.81
2023-05-05T01:34:19.795Z,154.55
2023-05-05T01:35:19.832Z,151.97
2023-05-05T01:36:19.828Z,153.71
2023-05-05T01:37:19.863Z,152.64
2023-05-05T01:38:19.959Z,152.22
2023-05-05T01:39:19.895Z,155.48
2023-05-05T01:40:19.973Z,154.55
2023-05-05T01:41:19.918Z,154.28
2023-05-05T01:42:19.928Z,155.28
2023-05-05T01:43:19.956Z,154.45
2023-05-05T01:44:19.969Z,154.34
2023-05-05T01:45:19.978Z,153.59
2023-05-05T01:46:20.112Z,154.53
2023-05-05T01:47:20.000Z,154.25
2023-05-05T01:48:20.023Z,151.49
2023-05-05T01:49:20.027Z,153.12
2023-05-05T01:50:20.047Z,153.17
2023-05-05T01:51:20.075Z,152.93
2023-05-05T01:52:20.091Z,154.47
2023-05-05T01:53:20.107Z,154.52
2023-05-05T01:54:20.114Z,153.17
2023-05-05T01:55:20.126Z,154.67
2023-05-05T01:56:20.148Z,153.73
2023-05-05T01:57:20.169Z,151.11
2023-05-05T01:58:20.267Z,153.41
2023-05-05T01:59:20.198Z,152.84
2023-05-05T02:00:20.235Z,152.56
2023-05-05T02:01:20.391Z,152.93
2023-05-05T02:02:20.260Z,154.13
2023-05-05T02:03:20.343Z,153.95
2023-05-05T02:04:20.274Z,153.36
2023-05-05T02:05:20.290Z,152.82
2023-05-05T02:06:20.390Z,152.76
2023-05-05T02:07:20.312Z,154.16
2023-05-05T02:08:20.472Z,153.41
2023-05-05T02:09:20.346Z,151.42
2023-05-05T02:10:20.359Z,151.07
2023-05-05T02:11:20.377Z,152.90
2023-05-05T02:12:20.458Z,152.58
2023-05-05T02:13:20.503Z,152.90
2023-05-05T02:14:20.430Z,151.90
2023-05-05T02:15:20.483Z,153.41
2023-05-05T02:16:20.503Z,152.48
2023-05-05T02:17:20.489Z,151.87
2023-05-05T02:18:20.502Z,149.50
2023-05-05T02:19:20.513Z,150.88
2023-05-05T02:20:20.527Z,151.82
2023-05-05T02:21:20.540Z,152.56
2023-05-05T02:22:20.547Z,151.67
2023-05-05T02:23:20.564Z,150.83
2023-05-05T02:24:21.393Z,152.21
2023-05-05T02:25:20.592Z,152.59
2023-05-05T02:26:20.610Z,151.64
2023-05-05T02:27:20.628Z,151.22
2023-05-05T02:28:20.654Z,150.92
2023-05-05T02:29:20.677Z,152.38
2023-05-05T02:30:20.685Z,152.17
2023-05-05T02:31:20.754Z,151.86
2023-05-05T02:32:20.759Z,150.79
2023-05-05T02:33:20.740Z,150.81
2023-05-05T02:34:20.752Z,151.10
2023-05-05T02:35:20.767Z,150.63
2023-05-05T02:36:20.777Z,152.02
2023-05-05T02:37:20.811Z,151.72
2023-05-05T02:38:20.811Z,151.79
2023-05-05T02:39:20.821Z,152.23
2023-05-05T02:40:20.833Z,151.07
2023-05-05T02:41:20.846Z,151.86
2023-05-05T02:42:20.874Z,149.68
2023-05-05T02:43:20.955Z,149.67
2023-05-05T02:44:20.905Z,150.22
2023-05-05T02:45:20.904Z,149.69
2023-05-05T02:46:20.939Z,149.83
2023-05-05T02:47:20.944Z,151.93
2023-05-05T02:48:21.408Z,151.25
2023-05-05T02:49:20.970Z,151.24
2023-05-05T02:50:20.985Z,150.66
2023-05-05T02:51:21.002Z,151.00
2023-05-05T02:52:21.087Z,151.21
2023-05-05T02:53:21.031Z,149.95
2023-05-05T02:54:21.039Z,149.79
2023-05-05T02:55:21.054Z,151.10
2023-05-05T02:56:21.079Z,150.08
2023-05-05T02:57:21.083Z,149.12
2023-05-05T02:58:21.117Z,148.69
2023-05-05T02:59:21.198Z,149.75
2023-05-05T03:00:21.126Z,150.27
2023-05-05T03:01:21.199Z,151.43
2023-05-05T03:02:21.182Z,148.93
2023-05-05T03:03:21.220Z,149.77
2023-05-05T03:04:21.185Z,150.80
2023-05-05T03:05:21.196Z,149.77
2023-05-05T03:06:21.237Z,149.54
2023-05-05T03:07:21.229Z,151.14
2023-05-05T03:08:21.245Z,149.93
2023-05-05T03:09:21.245Z,149.33
2023-05-05T03:10:21.255Z,149.68
2023-05-05T03:11:21.276Z,148.95
2023-05-05T03:12:21.279Z,149.91
2023-05-05T03:13:21.303Z,149.49
2023-05-05T03:14:21.313Z,149.13
2023-05-05T03:15:21.318Z,146.98
2023-05-05T03:16:21.382Z,150.50
2023-05-05T03:17:21.392Z,149.32
2023-05-05T03:18:21.369Z,148.39
2023-05-05T03:19:21.380Z,148.20
2023-05-05T03:20:21.401Z,148.90
2023-05-05T03:21:21.408Z,148.50
2023-05-05T03:22:21.495Z,150.62
2023-05-05T03:23:21.451Z,150.56
2023-05-05T03:24:21.466Z,149.61
2023-05-05T03:25:21.482Z,149.25
2023-05-05T03:26:21.489Z,147.88
2023-05-05T03:27:21.523Z,146.98
2023-05-05T03:28:21.520Z,146.58
2023-05-05T03:29:21.537Z,150.37
2023-05-05T03:30:21.555Z,148.12
2023-05-05T03:31:21.576Z,147.76
2023-05-05T03:32:21.583Z,147.84
2023-05-05T03:33:21.599Z,148.29
2023-05-05T03:34:21.614Z,147.90
2023-05-05T03:35:21.636Z,148.21
2023-05-05T03:36:21.636Z,147.25
2023-05-05T03:37:21.640Z,146.87
2023-05-05T03:38:21.678Z,146.25
2023-05-05T03:39:21.678Z,148.40
2023-05-05T03:40:29.694Z,146.70
2023-05-05T03:41:22.687Z,146.78
2023-05-05T03:42:21.690Z,146.89
2023-05-05T03:43:21.658Z,148.07
2023-05-05T03:44:21.671Z,147.87
2023-05-05T03:45:21.654Z,147.46
2023-05-05T03:46:21.687Z,148.51
2023-05-05T03:47:21.634Z,147.06
2023-05-05T03:48:21.638Z,147.07
2023-05-05T03:49:21.624Z,146.17
2023-05-05T03:50:21.693Z,144.97
2023-05-05T03:51:21.612Z,144.59
2023-05-05T03:52:21.595Z,147.04
2023-05-05T03:53:21.632Z,145.21
2023-05-05T03:54:21.597Z,144.36
2023-05-05T03:55:21.601Z,143.60
2023-05-05T03:56:21.585Z,144.73
2023-05-05T03:57:21.579Z,145.66
2023-05-05T03:58:21.573Z,145.57
2023-05-05T03:59:21.580Z,143.17
2023-05-05T04:00:21.550Z,144.37
2023-05-05T04:01:21.548Z,146.60
2023-05-05T04:02:22.494Z,144.90
2023-05-05T04:03:21.649Z,145.99
2023-05-05T04:04:21.566Z,144.33
2023-05-05T04:05:21.516Z,143.99
2023-05-05T04:06:21.513Z,145.32
2023-05-05T04:07:21.517Z,146.03
2023-05-05T04:08:21.620Z,145.93
2023-05-05T04:09:21.565Z,144.95
2023-05-05T04:10:21.573Z,144.70
2023-05-05T04:11:21.613Z,144.43
2023-05-05T04:12:21.604Z,144.81
2023-05-05T04:13:21.619Z,144.58
2023-05-05T04:14:21.638Z,145.73
2023-05-05T04:15:21.949Z,143.21
2023-05-05T04:16:21.703Z,143.79
2023-05-05T04:17:21.776Z,144.05
2023-05-05T04:18:21.777Z,144.86
2023-05-05T04:19:21.791Z,144.13
2023-05-05T04:20:22.463Z,143.93
2023-05-05T04:21:21.817Z,143.23
2023-05-05T04:22:21.831Z,144.16
2023-05-05T04:23:21.837Z,143.65
2023-05-05T04:24:21.850Z,142.63
2023-05-05T04:25:21.872Z,144.21
2023-05-05T04:26:21.931Z,144.10
2023-05-05T04:27:21.939Z,144.30
2023-05-05T04:28:22.261Z,143.68
2023-05-05T04:29:21.998Z,143.41
2023-05-05T04:30:22.076Z,144.15
2023-05-05T04:31:22.028Z,143.58
2023-05-05T04:32:22.040Z,145.14
2023-05-05T04:33:22.037Z,144.45
2023-05-05T04:34:22.082Z,145.29
2023-05-05T04:35:22.100Z,143.75
2023-05-05T04:36:22.101Z,142.71
2023-05-05T04:37:22.248Z,143.65
2023-05-05T04:38:22.179Z,143.66
2023-05-05T04:39:22.227Z,142.68
2023-05-05T04:40:22.247Z,143.32
2023-05-05T04:41:22.244Z,141.99
2023-05-05T04:42:22.325Z,142.42
2023-05-05T04:43:22.278Z,143.94
2023-05-05T04:44:22.274Z,142.83
2023-05-05T04:45:22.379Z,141.44
2023-05-05T04:46:22.425Z,142.59
2023-05-05T04:47:22.398Z,142.45
2023-05-05T04:48:22.411Z,141.69
2023-05-05T04:49:22.414Z,141.97
2023-05-05T04:50:22.473Z,141.59
2023-05-05T04:51:22.483Z,141.49
2023-05-05T04:52:22.480Z,141.89
2023-05-05T04:53:22.498Z,140.16
2023-05-05T04:54:22.505Z,141.71
2023-05-05T04:55:22.537Z,141.24
2023-05-05T04:56:22.578Z,141.08
2023-05-05T04:57:22.586Z,140.22
2023-05-05T04:58:22.624Z,139.34
2023-05-05T04:59:22.650Z,141.50
2023-05-05T05:00:22.640Z,139.62
2023-05-05T05:01:22.745Z,140.27
2023-05-05T05:02:22.794Z,141.01
2023-05-05T05:03:22.803Z,139.66
2023-05-05T05:04:22.753Z,138.57
2023-05-05T05:05:22.754Z,138.06
2023-05-05T05:06:22.831Z,139.35
2023-05-05T05:07:22.839Z,137.09
2023-05-05T05:08:22.837Z,135.99
2023-05-05T05:09:22.966Z,138.87
2023-05-05T05:10:22.917Z,137.08
2023-05-05T05:11:22.912Z,136.73
2023-05-05T05:12:22.931Z,137.00
2023-05-05T05:13:22.984Z,135.96
2023-05-05T05:14:22.943Z,135.37
2023-05-05T05:15:22.963Z,136.10
2023-05-05T05:16:23.143Z,136.30
2023-05-05T05:17:23.218Z,137.04
2023-05-05T05:18:23.171Z,138.10
2023-05-05T05:19:23.181Z,136.88
2023-05-05T05:20:23.982Z,137.97
2023-05-05T05:21:23.200Z,135.64
2023-05-05T05:22:23.304Z,132.97
2023-05-05T05:23:23.226Z,127.34
2023-05-05T05:24:23.255Z,125.07
2023-05-05T05:25:23.265Z,119.60
2023-05-05T05:26:23.355Z,120.23
2023-05-05T05:27:23.387Z,122.97
2023-05-05T05:28:23.395Z,123.34
2023-05-05T05:29:23.411Z,124.50
2023-05-05T05:30:23.442Z,126.09
2023-05-05T05:31:23.466Z,129.18
2023-05-05T05:32:23.535Z,133.69
2023-05-05T05:33:23.635Z,136.19
2023-05-05T05:34:23.635Z,138.80
2023-05-05T05:35:23.979Z,143.17
2023-05-05T05:36:23.663Z,148.99
2023-05-05T05:37:23.721Z,152.86
2023-05-05T05:38:23.788Z,156.78
2023-05-05T05:39:23.824Z,159.64
2023-05-05T05:40:23.877Z,162.00
2023-05-05T05:41:23.929Z,164.88
2023-05-05T05:42:23.950Z,169.01
2023-05-05T05:43:24.889Z,170.87
2023-05-05T05:44:24.043Z,172.86
2023-05-05T05:45:24.058Z,174.32
2023-05-05T05:46:24.119Z,177.59
2023-05-05T05:47:24.160Z,182.46
2023-05-05T05:48:24.157Z,184.91
2023-05-05T05:49:24.183Z,189.64
2023-05-05T05:50:24.204Z,191.50
2023-05-05T05:51:24.250Z,193.94
2023-05-05T05:52:24.288Z,194.95
2023-05-05T05:53:24.306Z,198.43
2023-05-05T05:54:24.325Z,199.25
2023-05-05T05:55:24.978Z,194.02
2023-05-05T05:56:24.362Z,199.48
2023-05-05T05:57:24.381Z,203.55
2023-05-05T05:58:24.390Z,209.20
2023-05-05T05:59:24.404Z,209.44
2023-05-05T06:00:24.392Z,214.46
2023-05-05T06:01:24.970Z,217.83
2023-05-05T06:02:24.415Z,219.47
2023-05-05T06:03:24.483Z,222.52
2023-05-05T06:04:24.428Z,223.60
2023-05-05T06:05:24.380Z,227.36
2023-05-05T06:06:24.404Z,229.72
2023-05-05T06:07:24.457Z,230.47
2023-05-05T06:08:25.137Z,229.39
2023-05-05T06:09:24.385Z,232.69
2023-05-05T06:10:27.830Z,233.68
2023-05-05T06:11:24.442Z,233.76
2023-05-05T06:12:24.367Z,233.93
2023-05-05T06:13:24.350Z,234.67
2023-05-05T06:14:24.351Z,237.43
2023-05-05T06:15:24.354Z,240.74
2023-05-05T06:16:25.095Z,241.60
2023-05-05T06:17:24.336Z,240.80
2023-05-05T06:18:24.403Z,241.96
2023-05-05T06:19:24.322Z,242.38
2023-05-05T06:20:24.298Z,235.95
2023-05-05T06:21:26.994Z,237.81
2023-05-05T06:22:24.297Z,240.46
2023-05-05T06:23:24.296Z,236.67
2023-05-05T06:24:24.292Z,236.85
2023-05-05T06:25:24.284Z,232.45
2023-05-05T06:26:24.275Z,232.81
2023-05-05T06:27:24.287Z,230.41
2023-05-05T06:28:24.264Z,226.63
2023-05-05T06:29:24.245Z,225.49
2023-05-05T06:30:24.238Z,222.61
2023-05-05T06:31:24.270Z,218.15
2023-05-05T06:32:24.261Z,215.38
2023-05-05T06:33:24.212Z,213.53
2023-05-05T06:34:24.552Z,211.11
2023-05-05T06:35:24.201Z,210.65
2023-05-05T06:36:24.245Z,204.59
2023-05-05T06:37:24.206Z,199.48
2023-05-05T06:38:24.193Z,199.89
2023-05-05T06:39:24.178Z,196.06
2023-05-05T06:40:24.188Z,194.65
2023-05-05T06:41:24.171Z,192.23
2023-05-05T06:42:24.172Z,189.55
2023-05-05T06:43:24.159Z,184.97
2023-05-05T06:44:24.168Z,178.38
2023-05-05T06:45:24.143Z,174.79
2023-05-05T06:46:24.170Z,170.81
2023-05-05T06:47:24.140Z,166.07
2023-05-05T06:48:24.136Z,164.54
2023-05-05T06:49:25.009Z,163.87
2023-05-05T06:50:24.104Z,162.62
2023-05-05T06:51:24.109Z,162.05
2023-05-05T06:52:24.101Z,159.81
2023-05-05T06:53:24.104Z,154.18
2023-05-05T06:54:24.115Z,152.82
2023-05-05T06:55:24.070Z,149.18
2023-05-05T06:56:24.052Z,148.04
2023-05-05T06:57:24.057Z,146.20
2023-05-05T06:58:24.047Z,143.70
2023-05-05T06:59:24.046Z,139.85
2023-05-05T07:00:24.036Z,137.35
2023-05-05T07:01:24.087Z,134.83
2023-05-05T07:02:26.667Z,132.92
2023-05-05T07:03:24.094Z,130.82
2023-05-05T07:04:24.002Z,126.33
2023-05-05T07:05:24.013Z,122.73
2023-05-05T07:06:24.003Z,120.91
2023-05-05T07:07:24.003Z,122.79
2023-05-05T07:08:24.014Z,120.20
2023-05-05T07:09:23.974Z,120.72
2023-05-05T07:10:23.963Z,116.58
2023-05-05T07:11:24.021Z,112.41
2023-05-05T07:12:23.958Z,111.51
2023-05-05T07:13:23.944Z,107.24
2023-05-05T07:14:24.534Z,106.16
2023-05-05T07:15:28.834Z,104.30
2023-05-05T07:16:24.963Z,104.18
2023-05-05T07:17:23.954Z,99.07
2023-05-05T07:18:24.121Z,91.01
2023-05-05T07:19:23.907Z,89.15
2023-05-05T07:20:24.280Z,91.16
2023-05-05T07:21:23.907Z,92.16
2023-05-05T07:22:23.882Z,73.36
2023-05-05T07:23:23.883Z,64.07
2023-05-05T07:24:23.870Z,60.26
2023-05-05T07:25:23.865Z,26.70
2023-05-05T07:26:23.858Z,42.98
2023-05-05T07:27:23.844Z,22.62
2023-05-05T07:28:23.847Z,25.62
2023-05-05T07:29:23.841Z,26.09
2023-05-05T07:30:24.121Z,30.20
2023-05-05T07:31:23.841Z,22.62
2023-05-05T07:32:23.865Z,25.00
2023-05-05T07:33:23.808Z,30.58
2023-05-05T07:34:23.872Z,35.06
2023-05-05T07:35:25.445Z,24.35
2023-05-05T07:36:23.808Z,24.74
2023-05-05T07:37:23.794Z,24.14
2023-05-05T07:38:23.832Z,28.35
2023-05-05T07:39:23.905Z,33.66
2023-05-05T07:40:23.962Z,26.58
2023-05-05T07:41:23.998Z,24.15
2023-05-05T07:42:24.063Z,21.49
2023-05-05T07:43:24.123Z,37.20
2023-05-05T07:44:24.170Z,41.94
2023-05-05T07:45:24.225Z,29.74
2023-05-05T07:46:24.356Z,32.79
2023-05-05T07:47:24.409Z,22.33
2023-05-05T07:48:24.469Z,35.62
2023-05-05T07:49:24.443Z,32.41
2023-05-05T07:50:24.665Z,36.64
2023-05-05T07:51:24.546Z,28.35
2023-05-05T07:52:37.043Z,40.78
2023-05-05T07:53:25.580Z,40.79
2023-05-05T07:54:24.603Z,32.69
2023-05-05T07:55:24.620Z,32.85
2023-05-05T07:56:24.554Z,29.57
2023-05-05T07:57:24.568Z,31.96
2023-05-05T07:58:24.554Z,23.64
2023-05-05T07:59:24.538Z,24.31
2023-05-05T08:00:24.673Z,33.99
2023-05-05T08:01:25.445Z,44.35
2023-05-05T08:02:24.597Z,41.24
2023-05-05T08:03:25.079Z,47.41
2023-05-05T08:04:24.549Z,56.06
2023-05-05T08:05:25.448Z,63.67
2023-05-05T08:06:24.608Z,64.10
2023-05-05T08:07:25.544Z,72.16
2023-05-05T08:08:24.923Z,76.43
2023-05-05T08:09:24.565Z,80.63
2023-05-05T08:10:24.616Z,76.42
2023-05-05T08:11:24.593Z,79.57
2023-05-05T08:12:24.607Z,80.64
2023-05-05T08:13:24.629Z,75.76
2023-05-05T08:14:24.655Z,82.95
2023-05-05T08:15:25.459Z,89.19
2023-05-05T08:16:24.763Z,90.34
2023-05-05T08:17:24.769Z,89.68
2023-05-05T08:18:24.746Z,91.94
2023-05-05T08:19:29.287Z,90.48
2023-05-05T08:20:24.768Z,90.55
2023-05-05T08:21:24.727Z,90.88
2023-05-05T08:22:24.811Z,85.00
2023-05-05T08:23:24.718Z,80.52
2023-05-05T08:24:24.715Z,84.70
2023-05-05T08:25:24.704Z,85.37
2023-05-05T08:26:24.706Z,81.72
2023-05-05T08:27:24.684Z,81.46
2023-05-05T08:28:24.682Z,73.46
2023-05-05T08:29:24.707Z,72.73
2023-05-05T08:30:24.674Z,78.70
2023-05-05T08:31:25.575Z,84.51
2023-05-05T08:32:24.717Z,98.40
2023-05-05T08:33:24.666Z,107.18
2023-05-05T08:34:24.645Z,112.03
2023-05-05T08:35:24.664Z,102.67
2023-05-05T08:36:24.638Z,95.27
2023-05-05T08:37:24.625Z,95.02
2023-05-05T08:38:25.129Z,98.13
2023-05-05T08:39:24.612Z,98.65
2023-05-05T08:40:24.611Z,79.77
2023-05-05T08:41:24.598Z,82.43
2023-05-05T08:42:36.307Z,85.61
2023-05-05T08:43:25.667Z,85.73
2023-05-05T08:44:24.591Z,86.22
2023-05-05T08:45:24.560Z,87.94
2023-05-05T08:46:25.647Z,93.18
2023-05-05T08:47:24.569Z,95.38
2023-05-05T08:48:24.569Z,102.18
2023-05-05T08:49:24.544Z,108.98
2023-05-05T08:50:24.530Z,114.31
2023-05-05T08:51:24.529Z,115.81
2023-05-05T08:52:24.531Z,122.54
2023-05-05T08:53:24.508Z,123.64
2023-05-05T08:54:24.672Z,123.55
2023-05-05T08:55:24.556Z,124.80
2023-05-05T08:56:24.541Z,128.07
2023-05-05T08:57:24.593Z,129.89
2023-05-05T08:58:25.542Z,128.36
2023-05-05T08:59:24.660Z,130.85
2023-05-05T09:00:24.692Z,127.56
2023-05-05T09:01:24.787Z,128.00
2023-05-05T09:02:24.802Z,127.22
2023-05-05T09:03:24.885Z,133.32
2023-05-05T09:04:24.836Z,139.16
2023-05-05T09:05:24.874Z,135.75
2023-05-05T09:06:24.907Z,132.65
2023-05-05T09:07:24.957Z,136.07
2023-05-05T09:08:25.005Z,138.66
2023-05-05T09:09:25.046Z,144.42
2023-05-05T09:10:25.196Z,149.83
2023-05-05T09:11:25.219Z,151.92
2023-05-05T09:12:25.189Z,156.06
2023-05-05T09:13:25.253Z,158.72
2023-05-05T09:14:25.299Z,162.96
2023-05-05T09:15:25.355Z,168.26
2023-05-05T09:16:25.479Z,172.52
2023-05-05T09:17:25.570Z,178.22
2023-05-05T09:18:25.569Z,180.67
2023-05-05T09:19:25.560Z,186.40
2023-05-05T09:20:25.587Z,189.37
2023-05-05T09:21:25.621Z,192.32
2023-05-05T09:22:25.716Z,194.23
2023-05-05T09:23:25.749Z,194.37
2023-05-05T09:24:25.732Z,197.54
2023-05-05T09:25:25.814Z,199.45
2023-05-05T09:26:25.800Z,199.98
2023-05-05T09:27:26.620Z,200.68
2023-05-05T09:28:25.873Z,202.43
2023-05-05T09:29:25.904Z,203.12
2023-05-05T09:30:26.019Z,205.69
2023-05-05T09:31:26.109Z,207.03
2023-05-05T09:32:26.895Z,208.13
2023-05-05T09:33:26.060Z,208.87
2023-05-05T09:34:26.099Z,210.60
2023-05-05T09:35:26.137Z,211.85
2023-05-05T09:36:26.205Z,211.69
2023-05-05T09:37:26.199Z,213.59
2023-05-05T09:38:26.243Z,214.64
2023-05-05T09:39:26.264Z,214.52
2023-05-05T09:40:26.293Z,215.21
2023-05-05T09:41:26.328Z,215.24
2023-05-05T09:42:26.505Z,216.69
2023-05-05T09:43:26.394Z,217.15
2023-05-05T09:44:27.077Z,216.92
2023-05-05T09:45:26.529Z,218.07
2023-05-05T09:46:27.032Z,218.17
2023-05-05T09:47:29.962Z,218.90
2023-05-05T09:48:26.559Z,220.66
2023-05-05T09:49:26.488Z,220.16
2023-05-05T09:50:27.096Z,219.46
2023-05-05T09:51:26.472Z,221.48
2023-05-05T09:52:26.460Z,220.21
2023-05-05T09:53:26.495Z,221.17
2023-05-05T09:54:26.454Z,222.24
2023-05-05T09:55:26.431Z,223.01
2023-05-05T09:56:26.440Z,222.68
2023-05-05T09:57:26.433Z,223.95
2023-05-05T09:58:26.639Z,223.16
2023-05-05T09:59:26.421Z,224.13
2023-05-05T10:00:26.407Z,224.50
2023-05-05T10:01:26.435Z,224.13
2023-05-05T10:02:26.420Z,223.53
2023-05-05T10:03:26.597Z,223.98
2023-05-05T10:04:26.403Z,224.28
2023-05-05T10:05:26.429Z,224.02
2023-05-05T10:06:26.376Z,224.54
2023-05-05T10:07:26.367Z,224.54
2023-05-05T10:08:26.408Z,225.93
2023-05-05T10:09:26.361Z,225.16
2023-05-05T10:10:28.063Z,225.55
2023-05-05T10:11:26.343Z,227.94
2023-05-05T10:12:26.388Z,228.29
2023-05-05T10:13:27.036Z,227.62
2023-05-05T10:14:26.405Z,227.66
2023-05-05T10:15:26.309Z,227.38
2023-05-05T10:16:27.479Z,228.00
2023-05-05T10:17:26.377Z,228.65
2023-05-05T10:18:26.352Z,228.03
2023-05-05T10:19:26.289Z,227.56
2023-05-05T10:20:26.305Z,228.23
2023-05-05T10:21:27.036Z,228.54
2023-05-05T10:22:26.384Z,226.71
2023-05-05T10:23:26.453Z,228.20
2023-05-05T10:24:26.472Z,226.63
2023-05-05T10:25:26.518Z,227.40
2023-05-05T10:26:26.576Z,226.50
2023-05-05T10:27:26.610Z,228.12
2023-05-05T10:28:26.645Z,227.21
2023-05-05T10:29:26.701Z,227.81
2023-05-05T10:30:26.753Z,227.34
2023-05-05T10:31:26.980Z,227.82
2023-05-05T10:32:47.439Z,226.85
2023-05-05T10:33:32.160Z,226.97
2023-05-05T10:34:26.829Z,226.99
2023-05-05T10:35:26.814Z,227.60
2023-05-05T10:36:26.830Z,228.11
2023-05-05T10:37:26.804Z,227.32
2023-05-05T10:38:26.951Z,228.50
2023-05-05T10:39:26.795Z,227.66
2023-05-05T10:40:26.790Z,227.16
2023-05-05T10:41:26.806Z,226.06
2023-05-05T10:42:26.863Z,228.80
2023-05-05T10:43:26.770Z,227.26
2023-05-05T10:44:26.767Z,225.88
2023-05-05T10:45:26.812Z,226.26
2023-05-05T10:46:26.986Z,226.05
2023-05-05T10:47:26.769Z,225.30
2023-05-05T10:48:26.785Z,227.33
2023-05-05T10:49:26.730Z,225.89
2023-05-05T10:50:26.720Z,226.62
2023-05-05T10:51:38.352Z,226.84
2023-05-05T10:52:27.711Z,226.96
2023-05-05T10:53:26.710Z,226.97
2023-05-05T10:54:26.729Z,227.27
2023-05-05T10:55:26.701Z,227.38
2023-05-05T10:56:27.607Z,226.97
2023-05-05T10:57:26.671Z,227.71
2023-05-05T10:58:26.679Z,226.99
2023-05-05T10:59:26.659Z,228.16
2023-05-05T11:00:26.656Z,226.30
2023-05-05T11:01:26.671Z,228.38
2023-05-05T11:02:26.891Z,227.82
2023-05-05T11:03:26.951Z,226.46
2023-05-05T11:04:26.668Z,226.12
2023-05-05T11:05:26.668Z,226.83
2023-05-05T11:06:26.684Z,226.42
2023-05-05T11:07:26.753Z,226.37
2023-05-05T11:08:26.718Z,226.38
2023-05-05T11:09:26.747Z,225.49
2023-05-05T11:10:26.797Z,226.67
2023-05-05T11:11:26.817Z,226.38
2023-05-05T11:12:26.869Z,225.88
2023-05-05T11:13:26.914Z,225.57
2023-05-05T11:14:26.941Z,224.67
2023-05-05T11:15:27.014Z,225.45
2023-05-05T11:16:27.084Z,226.23
2023-05-05T11:17:27.061Z,222.74
2023-05-05T11:18:27.051Z,219.75
2023-05-05T11:19:27.050Z,218.07
2023-05-05T11:20:27.047Z,214.74
2023-05-05T11:21:27.043Z,214.21
2023-05-05T11:22:27.063Z,213.04
2023-05-05T11:23:27.068Z,210.97
2023-05-05T11:24:27.059Z,210.35
2023-05-05T11:25:27.076Z,207.77
2023-05-05T11:26:27.069Z,202.94
2023-05-05T11:27:27.614Z,193.50
2023-05-05T11:28:27.093Z,196.08
2023-05-05T11:29:27.095Z,193.25
2023-05-05T11:30:27.619Z,191.34
2023-05-05T11:31:27.120Z,188.22
2023-05-05T11:32:27.135Z,189.02
2023-05-05T11:33:27.154Z,188.46
2023-05-05T11:34:27.226Z,185.32
2023-05-05T11:35:27.164Z,187.47
2023-05-05T11:36:27.183Z,187.32
2023-05-05T11:37:27.198Z,188.38
2023-05-05T11:38:27.206Z,189.01
2023-05-05T11:39:27.206Z,188.99
2023-05-05T11:40:27.226Z,188.29
2023-05-05T11:41:27.226Z,188.15
2023-05-05T11:42:27.243Z,187.08
2023-05-05T11:43:27.249Z,183.16
2023-05-05T11:44:27.242Z,183.32
2023-05-05T11:45:27.240Z,184.02
2023-05-05T11:46:28.164Z,185.02
2023-05-05T11:47:27.386Z,186.58
2023-05-05T11:48:27.360Z,188.63
2023-05-05T11:49:27.274Z,189.08
2023-05-05T11:50:27.269Z,191.34
2023-05-05T11:51:27.298Z,191.89
2023-05-05T11:52:27.314Z,191.54
2023-05-05T11:53:27.281Z,193.65
2023-05-05T11:54:27.301Z,193.75
2023-05-05T11:55:27.310Z,196.01
2023-05-05T11:56:27.280Z,195.82
2023-05-05T11:57:27.299Z,197.29
2023-05-05T11:58:27.315Z,197.21
2023-05-05T11:59:27.306Z,198.89
2023-05-05T12:00:27.321Z,198.85
2023-05-05T12:01:27.314Z,198.58
2023-05-05T12:02:27.412Z,200.22
2023-05-05T12:03:27.635Z,199.93
2023-05-05T12:04:27.371Z,200.78
2023-05-05T12:05:27.636Z,201.12
2023-05-05T12:06:30.187Z,200.99
2023-05-05T12:07:27.348Z,202.20
2023-05-05T12:08:27.343Z,203.31
2023-05-05T12:09:27.350Z,202.81
2023-05-05T12:10:27.331Z,203.16
2023-05-05T12:11:27.332Z,204.11
2023-05-05T12:12:27.322Z,204.01
2023-05-05T12:13:27.398Z,204.71
2023-05-05T12:14:27.296Z,205.35
2023-05-05T12:15:27.674Z,204.16
2023-05-05T12:16:27.349Z,205.94
2023-05-05T12:17:27.297Z,205.58
2023-05-05T12:18:27.290Z,205.79
2023-05-05T12:19:27.277Z,205.48
2023-05-05T12:20:27.262Z,207.97
2023-05-05T12:21:27.257Z,207.73
2023-05-05T12:22:27.385Z,207.44
2023-05-05T12:23:27.245Z,206.51
2023-05-05T12:24:27.241Z,207.37
2023-05-05T12:25:27.233Z,207.93
2023-05-05T12:26:27.236Z,207.99
2023-05-05T12:27:27.229Z,207.65
2023-05-05T12:28:27.221Z,207.51
2023-05-05T12:29:27.651Z,208.40
2023-05-05T12:30:27.230Z,207.95
2023-05-05T12:31:27.200Z,208.87